createdAt,value
2017-10-03T00:01:07.332Z,9.00
2017-10-03T00:03:33.782Z,6.00
2017-10-03T00:06:00.232Z,5.57
2017-10-03T00:08:26.766Z,5.97
2017-10-03T00:10:53.243Z,5.60
2017-10-03T00:13:19.667Z,6.00
2017-10-03T00:15:46.879Z,5.07
2017-10-03T00:18:13.327Z,5.33
2017-10-03T00:20:39.772Z,5.10
2017-10-03T00:23:06.963Z,4.60
2017-10-03T00:25:33.406Z,4.60
2017-10-03T00:27:59.912Z,4.57
2017-10-03T00:30:26.366Z,4.60
2017-10-03T00:32:52.818Z,4.73
2017-10-03T00:35:19.306Z,4.73
2017-10-03T00:37:46.576Z,5.00
2017-10-03T00:40:12.982Z,4.73
2017-10-03T00:42:40.159Z,5.33
2017-10-03T00:45:06.615Z,3.67
2017-10-03T00:47:33.182Z,4.10
2017-10-03T00:49:59.583Z,4.40
2017-10-03T00:52:26.024Z,3.60
2017-10-03T00:54:52.490Z,3.70
2017-10-03T00:57:19.639Z,4.23
2017-10-03T00:59:46.954Z,4.00
2017-10-03T01:02:13.448Z,4.53
2017-10-03T01:04:39.898Z,5.30
2017-10-03T01:07:06.351Z,4.70
2017-10-03T01:09:32.846Z,4.73
2017-10-03T01:11:59.332Z,4.83
2017-10-03T01:14:25.787Z,5.23
2017-10-03T01:16:52.236Z,4.20
2017-10-03T01:19:19.415Z,5.17
2017-10-03T01:21:45.864Z,4.40
2017-10-03T01:24:12.315Z,4.13
2017-10-03T01:26:38.991Z,5.43
2017-10-03T01:29:06.173Z,4.60
2017-10-03T01:31:32.618Z,5.17
2017-10-03T01:33:59.063Z,6.00
2017-10-03T01:36:25.472Z,4.87
2017-10-03T01:38:51.923Z,4.70
2017-10-03T01:41:18.355Z,4.57
2017-10-03T01:43:44.842Z,5.57
2017-10-03T01:46:11.986Z,6.67
2017-10-03T01:48:39.160Z,6.23
2017-10-03T01:51:05.595Z,6.27
2017-10-03T01:53:32.053Z,5.97
2017-10-03T01:55:58.504Z,4.50
2017-10-03T01:58:24.944Z,5.10
2017-10-03T02:00:51.428Z,4.23
2017-10-03T02:03:17.847Z,4.10
2017-10-03T02:05:44.302Z,5.20
2017-10-03T02:08:10.773Z,3.97
2017-10-03T02:10:37.262Z,2.97
2017-10-03T02:13:03.782Z,4.80
2017-10-03T02:15:30.186Z,6.97
2017-10-03T02:17:58.102Z,6.10
2017-10-03T02:20:24.527Z,6.90
2017-10-03T02:22:50.975Z,6.17
2017-10-03T02:25:17.426Z,5.43
2017-10-03T02:27:43.871Z,3.47
2017-10-03T02:30:11.243Z,3.30
2017-10-03T02:32:38.558Z,2.50
2017-10-03T02:35:05.606Z,2.20
2017-10-03T02:37:32.048Z,3.10
2017-10-03T02:39:58.574Z,2.80
2017-10-03T02:42:25.069Z,3.03
2017-10-03T02:44:51.539Z,2.30
2017-10-03T02:47:17.975Z,1.90
2017-10-03T02:49:44.431Z,1.50
2017-10-03T02:52:11.675Z,1.40
2017-10-03T02:54:38.111Z,1.37
2017-10-03T02:57:04.562Z,1.60
2017-10-03T02:59:31.730Z,1.40
2017-10-03T03:01:58.983Z,1.40
2017-10-03T03:04:26.181Z,1.13
2017-10-03T03:06:52.649Z,1.33
2017-10-03T03:09:19.801Z,1.33
2017-10-03T03:11:47.002Z,1.30
2017-10-03T03:14:13.563Z,1.50
2017-10-03T03:16:40.003Z,1.57
2017-10-03T03:19:06.448Z,1.50
2017-10-03T03:21:33.647Z,1.53
2017-10-03T03:24:00.074Z,1.57
2017-10-03T03:26:26.669Z,0.93
2017-10-03T03:28:53.120Z,1.33
2017-10-03T03:31:20.290Z,1.70
2017-10-03T03:33:46.898Z,1.50
2017-10-03T03:36:14.045Z,1.20
2017-10-03T03:38:41.399Z,1.40
2017-10-03T03:41:08.577Z,1.30
2017-10-03T03:43:35.005Z,1.30
2017-10-03T03:46:01.454Z,1.40
2017-10-03T03:48:27.898Z,1.63
2017-10-03T03:50:54.471Z,1.63
2017-10-03T03:53:21.651Z,1.73
2017-10-03T03:55:48.109Z,1.47
2017-10-03T03:58:14.614Z,1.50
2017-10-03T04:00:41.164Z,1.30
2017-10-03T04:03:07.612Z,1.43
2017-10-03T04:05:34.028Z,1.50
2017-10-03T04:08:00.602Z,1.63
2017-10-03T04:10:27.155Z,1.40
2017-10-03T04:12:54.380Z,1.60
2017-10-03T04:15:20.795Z,1.47
2017-10-03T04:17:47.214Z,1.57
2017-10-03T04:20:13.643Z,1.90
2017-10-03T04:22:40.075Z,0.70
2017-10-03T04:25:06.678Z,0.50
2017-10-03T04:27:33.843Z,0.70
2017-10-03T04:30:01.178Z,0.70
2017-10-03T04:32:27.654Z,0.70
2017-10-03T04:34:54.060Z,0.67
2017-10-03T04:37:21.343Z,0.87
2017-10-03T04:39:47.775Z,0.70
2017-10-03T04:42:14.410Z,0.90
2017-10-03T04:44:40.841Z,1.53
2017-10-03T04:47:07.372Z,0.67
2017-10-03T04:49:33.918Z,0.37
2017-10-03T04:52:00.607Z,0.50
2017-10-03T04:54:27.135Z,0.40
2017-10-03T04:56:53.623Z,0.60
2017-10-03T04:59:20.079Z,0.40
2017-10-03T05:01:46.498Z,0.60
2017-10-03T05:04:12.990Z,0.50
2017-10-03T05:06:40.198Z,0.50
2017-10-03T05:09:06.638Z,0.40
2017-10-03T05:11:33.134Z,0.37
2017-10-03T05:16:32.774Z,0.50
2017-10-03T05:18:59.188Z,0.40
2017-10-03T05:21:25.602Z,0.30
2017-10-03T05:23:52.786Z,0.90
2017-10-03T05:26:19.230Z,0.47
2017-10-03T05:28:45.659Z,0.50
2017-10-03T05:31:12.066Z,0.40
2017-10-03T05:33:38.541Z,0.40
2017-10-03T05:36:05.102Z,0.37
2017-10-03T05:38:32.310Z,0.50
2017-10-03T05:40:58.717Z,0.40
2017-10-03T05:43:25.118Z,0.70
2017-10-03T05:45:52.306Z,0.40
2017-10-03T05:48:18.710Z,0.70
2017-10-03T05:50:45.906Z,0.47
2017-10-03T05:53:12.379Z,0.40
2017-10-03T05:55:38.942Z,0.40
2017-10-03T05:58:05.363Z,0.50
2017-10-03T06:00:32.615Z,0.40
2017-10-03T06:02:59.835Z,0.40
2017-10-03T06:05:26.258Z,0.80
2017-10-03T06:07:52.762Z,0.83
2017-10-03T06:10:19.174Z,0.67
2017-10-03T06:12:45.618Z,0.73
2017-10-03T06:15:12.091Z,0.70
2017-10-03T06:17:38.573Z,0.90
2017-10-03T06:20:05.067Z,0.57
2017-10-03T06:22:31.536Z,0.70
2017-10-03T06:24:58.754Z,0.70
2017-10-03T06:27:25.190Z,0.80
2017-10-03T06:29:51.687Z,0.70
2017-10-03T06:32:18.163Z,0.63
2017-10-03T06:34:44.641Z,0.70
2017-10-03T06:37:11.073Z,0.70
2017-10-03T06:39:37.568Z,0.70
2017-10-03T06:42:04.028Z,0.90
2017-10-03T06:44:30.473Z,0.80
2017-10-03T06:46:56.930Z,0.80
2017-10-03T06:49:23.539Z,1.00
2017-10-03T06:51:49.987Z,1.03
2017-10-03T06:54:16.426Z,1.40
2017-10-03T06:56:43.007Z,1.13
2017-10-03T06:59:09.479Z,0.90
2017-10-03T07:01:35.913Z,1.00
2017-10-03T07:04:02.343Z,0.80
2017-10-03T07:06:28.916Z,1.10
2017-10-03T07:08:55.414Z,0.90
2017-10-03T07:11:21.909Z,0.90
2017-10-03T07:13:48.323Z,1.10
2017-10-03T07:16:16.402Z,1.30
2017-10-03T07:18:43.018Z,1.60
2017-10-03T07:21:09.466Z,1.20
2017-10-03T07:23:35.959Z,1.17
2017-10-03T07:26:02.403Z,1.30
2017-10-03T07:28:28.935Z,1.57
2017-10-03T07:30:55.428Z,5.10
2017-10-03T07:33:22.646Z,3.27
2017-10-03T07:35:49.284Z,2.00
2017-10-03T07:38:16.802Z,1.23
2017-10-03T07:40:43.281Z,2.03
2017-10-03T07:43:11.186Z,2.07
2017-10-03T07:45:37.679Z,3.00
2017-10-03T07:48:04.108Z,2.90
2017-10-03T07:50:30.579Z,2.33
2017-10-03T07:52:57.784Z,1.80
2017-10-03T07:55:24.224Z,1.50
2017-10-03T07:57:50.697Z,1.60
2017-10-03T08:00:17.864Z,1.20
2017-10-03T08:02:44.330Z,2.23
2017-10-03T08:05:10.774Z,1.90
2017-10-03T08:07:37.261Z,3.10
2017-10-03T08:10:03.703Z,3.27
2017-10-03T08:12:30.150Z,3.77
2017-10-03T08:14:56.672Z,3.03
2017-10-03T08:17:23.091Z,2.23
2017-10-03T08:19:49.544Z,2.50
2017-10-03T08:22:16.235Z,1.73
2017-10-03T08:24:43.521Z,1.00
2017-10-03T08:27:09.931Z,2.30
2017-10-03T08:29:37.145Z,1.27
2017-10-03T08:32:03.719Z,1.53
2017-10-03T08:34:30.916Z,2.03
2017-10-03T08:36:57.369Z,2.07
2017-10-03T08:39:23.817Z,2.13
2017-10-03T08:41:50.319Z,1.70
2017-10-03T08:44:16.751Z,3.43
2017-10-03T08:46:43.250Z,1.60
2017-10-03T08:49:09.736Z,1.30
2017-10-03T08:51:36.335Z,4.10
2017-10-03T08:54:02.855Z,1.37
2017-10-03T08:56:29.492Z,1.90
2017-10-03T08:58:56.720Z,1.23
2017-10-03T09:01:24.268Z,1.60
2017-10-03T09:03:51.538Z,1.60
2017-10-03T09:06:18.756Z,1.73
2017-10-03T09:08:45.236Z,2.37
2017-10-03T09:11:11.684Z,2.30
2017-10-03T09:13:38.118Z,2.40
2017-10-03T09:16:04.614Z,1.33
2017-10-03T09:18:31.807Z,1.40
2017-10-03T09:20:58.966Z,1.43
2017-10-03T09:23:25.609Z,1.20
2017-10-03T09:25:52.060Z,1.90
2017-10-03T09:28:18.743Z,2.10
2017-10-03T09:30:45.358Z,2.10
2017-10-03T09:33:11.842Z,1.57
2017-10-03T09:35:38.294Z,1.30
2017-10-03T09:38:07.905Z,2.70
2017-10-03T09:40:34.424Z,1.50
2017-10-03T09:43:00.907Z,2.70
2017-10-03T09:45:28.128Z,3.23
2017-10-03T09:47:54.587Z,2.00
2017-10-03T09:50:21.849Z,2.50
2017-10-03T09:52:49.191Z,3.70
2017-10-03T09:55:17.230Z,2.50
2017-10-03T09:57:43.699Z,2.37
2017-10-03T10:00:10.879Z,3.47
2017-10-03T10:02:37.368Z,2.07
2017-10-03T10:05:04.568Z,3.23
2017-10-03T10:07:31.062Z,4.10
2017-10-03T10:09:58.254Z,3.77
2017-10-03T10:12:24.690Z,2.67
2017-10-03T10:14:51.422Z,2.50
2017-10-03T10:17:17.874Z,3.70
2017-10-03T10:19:44.443Z,3.10
2017-10-03T10:22:10.954Z,3.33
2017-10-03T10:24:37.483Z,3.70
2017-10-03T10:27:03.944Z,4.63
2017-10-03T10:29:30.470Z,4.37
2017-10-03T10:31:57.146Z,3.13
2017-10-03T10:34:24.409Z,3.00
2017-10-03T10:36:50.926Z,3.43
2017-10-03T10:39:18.208Z,3.23
2017-10-03T10:41:44.716Z,3.00
2017-10-03T10:44:11.874Z,13.67
2017-10-03T10:46:38.355Z,5.90
2017-10-03T10:49:05.128Z,5.57
2017-10-03T10:51:32.354Z,5.03
2017-10-03T10:53:58.956Z,4.10
2017-10-03T10:56:25.386Z,4.70
2017-10-03T10:58:51.858Z,3.40
2017-10-03T11:01:18.310Z,3.00
2017-10-03T11:03:44.769Z,3.13
2017-10-03T11:06:11.275Z,2.93
2017-10-03T11:08:41.166Z,2.90
2017-10-03T11:11:07.669Z,3.30
2017-10-03T11:13:34.113Z,1.90
2017-10-03T11:16:00.634Z,2.50
2017-10-03T11:18:27.151Z,2.57
2017-10-03T11:20:54.397Z,2.57
2017-10-03T11:23:33.890Z,2.10
2017-10-03T11:26:00.323Z,2.00
2017-10-03T11:28:27.003Z,2.90
2017-10-03T11:30:54.221Z,1.83
2017-10-03T11:33:20.773Z,2.50
2017-10-03T11:35:47.222Z,2.20
2017-10-03T11:38:14.434Z,2.77
2017-10-03T11:40:41.182Z,2.70
2017-10-03T11:43:07.684Z,2.70
2017-10-03T11:45:34.167Z,3.13
2017-10-03T11:48:00.677Z,3.07
2017-10-03T11:50:27.172Z,3.27
2017-10-03T11:52:53.695Z,3.00
2017-10-03T11:55:20.115Z,4.17
2017-10-03T11:57:47.281Z,3.93
2017-10-03T12:00:13.763Z,4.50
2017-10-03T12:02:40.340Z,3.60
2017-10-03T12:05:07.621Z,3.63
2017-10-03T12:07:34.101Z,3.53
2017-10-03T12:10:00.904Z,3.33
2017-10-03T12:12:27.375Z,3.80
2017-10-03T12:14:53.922Z,2.60
2017-10-03T12:17:21.240Z,3.00
2017-10-03T12:19:47.732Z,2.50
2017-10-03T12:22:14.263Z,3.87
2017-10-03T12:24:40.896Z,2.73
2017-10-03T12:27:08.139Z,3.80
2017-10-03T12:29:35.454Z,3.43
2017-10-03T12:32:01.999Z,3.97
2017-10-03T12:34:28.515Z,4.47
2017-10-03T12:36:55.031Z,4.50
2017-10-03T12:39:21.579Z,4.37
2017-10-03T12:41:48.105Z,7.77
2017-10-03T12:44:14.979Z,3.20
2017-10-03T12:46:41.462Z,3.77
2017-10-03T12:49:07.951Z,3.73
2017-10-03T12:51:34.645Z,3.40
2017-10-03T12:54:01.237Z,3.07
2017-10-03T12:56:27.782Z,3.40
2017-10-03T12:58:54.299Z,2.50
2017-10-03T13:01:20.818Z,2.60
2017-10-03T13:03:47.255Z,2.77
2017-10-03T13:06:13.694Z,2.40
2017-10-03T13:08:40.185Z,3.50
2017-10-03T13:11:06.642Z,4.20
2017-10-03T13:13:33.309Z,3.73
2017-10-03T13:15:59.744Z,3.83
2017-10-03T13:18:26.975Z,3.93
2017-10-03T13:20:53.562Z,2.80
2017-10-03T13:23:20.016Z,2.73
2017-10-03T13:25:46.536Z,2.60
2017-10-03T13:28:13.103Z,2.53
2017-10-03T13:30:39.579Z,2.40
2017-10-03T13:33:06.183Z,1.97
2017-10-03T13:35:32.833Z,1.93
2017-10-03T13:37:59.288Z,2.20
2017-10-03T13:40:26.617Z,2.30
2017-10-03T13:42:53.219Z,2.27
2017-10-03T13:45:19.708Z,2.33
2017-10-03T13:47:46.919Z,3.53
2017-10-03T13:50:13.347Z,4.17
2017-10-03T13:52:39.871Z,4.10
2017-10-03T13:55:06.273Z,2.37
2017-10-03T13:57:33.564Z,2.80
2017-10-03T14:00:00.017Z,3.77
2017-10-03T14:02:27.347Z,3.00
2017-10-03T14:04:53.903Z,2.53
2017-10-03T14:07:20.567Z,2.30
2017-10-03T14:09:47.072Z,2.40
2017-10-03T14:12:13.563Z,2.30
2017-10-03T14:14:40.014Z,2.73
2017-10-03T14:17:06.479Z,2.80
2017-10-03T14:19:32.984Z,3.03
2017-10-03T14:21:59.479Z,2.77
2017-10-03T14:24:26.637Z,3.40
2017-10-03T14:26:53.917Z,2.53
2017-10-03T14:29:20.347Z,2.80
2017-10-03T14:31:46.819Z,3.07
2017-10-03T14:34:13.326Z,1.80
2017-10-03T14:36:39.783Z,2.50
2017-10-03T14:39:06.272Z,2.60
2017-10-03T14:41:32.712Z,2.20
2017-10-03T14:43:59.199Z,2.07
2017-10-03T14:46:25.664Z,2.93
2017-10-03T14:48:53.097Z,2.67
2017-10-03T14:51:19.643Z,2.90
2017-10-03T14:53:46.882Z,3.80
2017-10-03T14:56:14.855Z,3.17
2017-10-03T14:58:42.062Z,8.97
2017-10-03T15:01:08.562Z,2.90
2017-10-03T15:03:35.076Z,2.90
2017-10-03T15:06:02.296Z,2.57
2017-10-03T15:08:28.750Z,2.23
2017-10-03T15:10:56.743Z,2.47
2017-10-03T15:13:23.991Z,2.17
2017-10-03T15:15:51.250Z,1.60
2017-10-03T15:18:18.667Z,2.10
2017-10-03T15:20:45.134Z,1.77
2017-10-03T15:23:12.347Z,1.90
2017-10-03T15:25:38.847Z,1.70
2017-10-03T15:28:05.440Z,2.17
2017-10-03T15:30:31.918Z,1.40
2017-10-03T15:32:58.424Z,2.67
2017-10-03T15:35:25.697Z,6.17
2017-10-03T15:37:52.266Z,1.87
2017-10-03T15:40:18.757Z,2.27
2017-10-03T15:42:45.193Z,2.30
2017-10-03T15:45:11.678Z,2.47
2017-10-03T15:47:39.752Z,2.83
2017-10-03T15:50:06.220Z,2.33
2017-10-03T15:52:33.497Z,2.40
2017-10-03T15:54:59.929Z,3.00
2017-10-03T15:57:26.479Z,3.20
2017-10-03T15:59:52.967Z,2.90
2017-10-03T16:02:19.444Z,3.33
2017-10-03T16:04:45.911Z,3.53
2017-10-03T16:07:12.404Z,3.17
2017-10-03T16:09:38.935Z,3.10
2017-10-03T16:12:05.544Z,3.30
2017-10-03T16:14:32.737Z,2.60
2017-10-03T16:16:59.262Z,2.90
2017-10-03T16:19:25.705Z,3.43
2017-10-03T16:21:52.196Z,2.20
2017-10-03T16:24:19.437Z,2.97
2017-10-03T16:26:46.663Z,3.13
2017-10-03T16:29:13.206Z,17.10
2017-10-03T16:31:39.723Z,6.77
2017-10-03T16:34:06.205Z,3.70
2017-10-03T16:36:33.428Z,3.40
2017-10-03T16:39:01.767Z,3.63
2017-10-03T16:41:28.224Z,6.90
2017-10-03T16:43:56.492Z,5.77
2017-10-03T16:46:22.973Z,7.37
2017-10-03T16:48:49.495Z,7.67
2017-10-03T16:51:16.750Z,6.23
2017-10-03T16:53:43.963Z,58.63
2017-10-03T16:56:10.448Z,23.93
2017-10-03T16:58:36.923Z,14.20
2017-10-03T17:01:03.441Z,17.60
2017-10-03T17:03:29.888Z,12.67
2017-10-03T17:05:56.342Z,10.20
2017-10-03T17:08:23.714Z,8.40
2017-10-03T17:10:50.165Z,5.77
2017-10-03T17:13:16.639Z,5.23
2017-10-03T17:15:43.080Z,7.03
2017-10-03T17:18:09.566Z,5.10
2017-10-03T17:20:36.759Z,4.30
2017-10-03T17:23:03.219Z,3.80
2017-10-03T17:25:29.687Z,4.57
2017-10-03T17:27:56.234Z,8.37
2017-10-03T17:30:23.068Z,24.83
2017-10-03T17:32:49.618Z,5.40
2017-10-03T17:35:16.110Z,5.70
2017-10-03T17:37:42.693Z,7.67
2017-10-03T17:40:09.206Z,9.50
2017-10-03T17:42:35.666Z,8.00
2017-10-03T17:45:02.128Z,8.57
2017-10-03T17:47:29.636Z,6.40
2017-10-03T17:49:56.094Z,5.63
2017-10-03T17:52:22.743Z,5.07
2017-10-03T17:54:49.253Z,5.00
2017-10-03T17:57:15.953Z,6.73
2017-10-03T17:59:43.156Z,5.93
2017-10-03T18:02:09.677Z,4.67
2017-10-03T18:04:36.278Z,4.57
2017-10-03T18:07:03.640Z,5.33
2017-10-03T18:09:30.303Z,5.63
2017-10-03T18:11:57.002Z,7.23
2017-10-03T18:14:23.624Z,9.23
2017-10-03T18:16:51.135Z,5.60
2017-10-03T18:19:17.983Z,7.50
2017-10-03T18:21:45.044Z,6.57
2017-10-03T18:24:11.981Z,6.50
2017-10-03T18:26:40.347Z,5.57
2017-10-03T18:29:07.313Z,5.60
2017-10-03T18:31:34.961Z,6.13
2017-10-03T18:34:01.905Z,5.30
2017-10-03T18:36:28.991Z,6.07
2017-10-03T18:38:55.852Z,6.33
2017-10-03T18:41:22.735Z,8.10
2017-10-03T18:43:49.627Z,7.57
2017-10-03T18:46:16.517Z,7.67
2017-10-03T18:48:43.463Z,7.50
2017-10-03T18:51:10.422Z,7.23
2017-10-03T18:53:38.068Z,7.10
2017-10-03T18:56:05.125Z,7.80
2017-10-03T18:58:32.778Z,9.23
2017-10-03T19:00:59.620Z,7.63
2017-10-03T19:03:26.569Z,8.03
2017-10-03T19:05:53.612Z,8.77
2017-10-03T19:08:21.580Z,7.60
2017-10-03T19:10:48.472Z,6.87
2017-10-03T19:13:15.779Z,8.00
2017-10-03T19:15:42.621Z,8.07
2017-10-03T19:18:09.566Z,8.17
2017-10-03T19:20:36.517Z,6.67
2017-10-03T19:23:03.453Z,7.97
2017-10-03T19:25:30.401Z,9.07
2017-10-03T19:27:57.341Z,10.90
2017-10-03T19:30:24.508Z,9.17
2017-10-03T19:32:52.162Z,8.03
2017-10-03T19:35:19.332Z,7.93
2017-10-03T19:37:46.347Z,9.03
2017-10-03T19:40:13.294Z,7.77
2017-10-03T19:42:41.060Z,9.87
2017-10-03T19:45:08.250Z,10.17
2017-10-03T19:47:35.028Z,8.27
2017-10-03T19:50:01.994Z,8.97
2017-10-03T19:52:28.937Z,9.53
2017-10-03T19:54:55.881Z,11.63
2017-10-03T19:57:22.844Z,10.20
2017-10-03T19:59:50.591Z,8.60
2017-10-03T20:02:17.432Z,8.83
2017-10-03T20:04:44.389Z,8.47
2017-10-03T20:07:11.012Z,8.20
2017-10-03T20:09:37.515Z,8.77
2017-10-03T20:12:04.810Z,9.23
2017-10-03T20:14:31.328Z,9.17
2017-10-03T20:16:57.751Z,8.07
2017-10-03T20:19:24.386Z,8.50
2017-10-03T20:21:51.599Z,10.10
2017-10-03T20:24:18.087Z,9.60
2017-10-03T20:26:44.624Z,10.48
2017-10-03T20:29:11.236Z,11.20
2017-10-03T20:31:38.557Z,9.88
2017-10-03T20:34:05.025Z,10.00
2017-10-03T20:36:32.327Z,9.77
2017-10-03T20:38:58.799Z,9.17
2017-10-03T20:41:26.098Z,10.03
2017-10-03T20:43:52.773Z,9.10
2017-10-03T20:46:19.278Z,10.00
2017-10-03T20:48:45.746Z,9.70
2017-10-03T20:51:13.092Z,10.63
2017-10-03T20:53:39.631Z,10.47
2017-10-03T20:56:07.790Z,10.77
2017-10-03T20:58:34.393Z,11.25
2017-10-03T21:01:00.895Z,10.50
2017-10-03T21:03:28.118Z,9.23
2017-10-03T21:05:54.599Z,10.10
2017-10-03T21:08:21.096Z,9.60
2017-10-03T21:10:52.269Z,10.35
2017-10-03T21:13:18.702Z,9.90
2017-10-03T21:15:45.202Z,10.73
2017-10-03T21:18:11.687Z,8.23
2017-10-03T21:20:38.202Z,7.50
2017-10-03T21:23:04.668Z,8.60
2017-10-03T21:25:31.111Z,9.15
2017-10-03T21:27:57.627Z,10.20
2017-10-03T21:30:24.129Z,9.80
2017-10-03T21:32:50.800Z,12.50
2017-10-03T21:35:17.287Z,14.90
2017-10-03T21:37:44.598Z,12.48
2017-10-03T21:40:11.147Z,12.60
2017-10-03T21:42:49.852Z,10.65
2017-10-03T21:45:16.320Z,10.90
2017-10-03T21:47:42.814Z,11.07
2017-10-03T21:50:09.303Z,9.63
2017-10-03T21:52:36.489Z,9.30
2017-10-03T21:55:03.105Z,9.30
2017-10-03T21:57:30.308Z,10.18
2017-10-03T21:59:56.743Z,10.52
2017-10-03T22:02:23.206Z,12.25
2017-10-03T22:04:50.430Z,10.80
2017-10-03T22:07:17.095Z,11.63
2017-10-03T22:09:44.219Z,11.82
2017-10-03T22:12:10.732Z,11.88
2017-10-03T22:14:37.323Z,12.27
2017-10-03T22:17:04.524Z,11.45
2017-10-03T22:19:31.002Z,9.75
2017-10-03T22:21:58.211Z,9.55
2017-10-03T22:24:24.707Z,9.00
2017-10-03T22:26:51.316Z,9.32
2017-10-03T22:29:17.765Z,9.48
2017-10-03T22:31:45.015Z,9.93
2017-10-03T22:34:12.223Z,9.77
2017-10-03T22:36:38.799Z,8.40
2017-10-03T22:39:05.963Z,9.23
2017-10-03T22:41:32.466Z,8.82
2017-10-03T22:43:58.881Z,9.40
2017-10-03T22:46:25.323Z,7.85
2017-10-03T22:48:51.783Z,10.70
2017-10-03T22:51:25.103Z,9.90
2017-10-03T22:53:51.617Z,10.48
2017-10-03T22:56:18.788Z,9.95
2017-10-03T22:58:45.231Z,12.45
2017-10-03T23:01:11.683Z,11.20
2017-10-03T23:03:38.112Z,10.15
2017-10-03T23:06:04.615Z,10.00
2017-10-03T23:08:31.059Z,11.60
2017-10-03T23:10:57.656Z,10.60
2017-10-03T23:13:24.880Z,10.40
2017-10-03T23:15:51.417Z,11.40
2017-10-03T23:18:17.866Z,11.35
2017-10-03T23:20:45.135Z,10.45
2017-10-03T23:23:12.312Z,10.68
2017-10-03T23:25:38.995Z,10.52
2017-10-03T23:28:05.574Z,10.57
2017-10-03T23:30:32.064Z,10.45
2017-10-03T23:32:58.539Z,9.85
2017-10-03T23:35:24.955Z,10.80
2017-10-03T23:37:52.146Z,10.43
2017-10-03T23:40:18.615Z,9.98
2017-10-03T23:42:45.815Z,8.43
2017-10-03T23:45:13.163Z,11.25
2017-10-03T23:47:39.603Z,10.40
2017-10-03T23:50:06.062Z,10.02
2017-10-03T23:52:32.563Z,9.85
2017-10-03T23:54:59.034Z,10.02
2017-10-03T23:57:25.459Z,10.00
2017-10-03T23:59:51.910Z,10.23
